Time;durP1;ratioP1;P1;durP2;ratioP2;P2;SDS_P1;SDS_P2;PMS_P1;PMS_P2;Temp;Humidity;BMP_temperature;BMP_pressure;BME280_temperature;BME280_humidity;BME280_pressure;Samples;Min_cycle;Max_cycle;Signal;HPM_P1;HPM_P2
2022/04/21 00:02:24;;;;;;;11.88;5.40;;;5.70;83.30;;;;;;5033037;28;20029;-71
2022/04/21 00:04:50;;;;;;;10.27;5.60;;;5.60;83.60;;;;;;5029792;28;20026;-71
2022/04/21 00:07:15;;;;;;;7.68;5.30;;;5.50;83.70;;;;;;5038338;28;20042;-71
2022/04/21 00:09:41;;;;;;;14.27;5.47;;;5.50;83.90;;;;;;5030366;28;20706;-71
2022/04/21 00:12:07;;;;;;;12.25;5.65;;;5.40;83.70;;;;;;5037121;28;20063;-71
2022/04/21 00:14:32;;;;;;;8.88;5.60;;;5.40;83.90;;;;;;5029443;28;20448;-71
2022/04/21 00:16:57;;;;;;;8.52;4.50;;;5.30;84.20;;;;;;5039760;28;20040;-71
2022/04/21 00:19:26;;;;;;;7.53;5.28;;;5.30;84.60;;;;;;5031547;28;20502;-71
2022/04/21 00:24:36;;;;;;;8.98;4.50;;;5.30;85.20;;;;;;5024912;28;20025;-71
2022/04/21 00:27:02;;;;;;;9.38;5.22;;;5.30;85.40;;;;;;5033420;28;20033;-71
2022/04/21 00:29:28;;;;;;;10.15;5.85;;;5.50;85.60;;;;;;5028525;28;20431;-71
2022/04/21 00:31:53;;;;;;;8.35;5.00;;;5.40;85.30;;;;;;5026761;28;20033;-71
2022/04/21 00:34:19;;;;;;;9.23;4.55;;;5.30;85.10;;;;;;5041892;28;20033;-71
2022/04/21 00:36:45;;;;;;;9.95;4.63;;;5.30;85.10;;;;;;5032007;28;20113;-71
2022/04/21 00:39:11;;;;;;;8.10;4.78;;;5.30;85.20;;;;;;5039449;28;20368;-71
2022/04/21 00:41:36;;;;;;;8.27;5.03;;;5.20;85.10;;;;;;5030594;28;20021;-71
2022/04/21 00:44:02;;;;;;;8.07;5.03;;;5.20;85.30;;;;;;5031717;28;20521;-71
2022/04/21 00:46:29;;;;;;;8.10;4.55;;;5.20;85.30;;;;;;5032484;28;20025;-71
2022/04/21 00:48:55;;;;;;;8.60;5.30;;;5.10;85.20;;;;;;5027188;28;20483;-71
2022/04/21 00:51:23;;;;;;;7.72;4.20;;;5.00;85.10;;;;;;5030608;28;20037;-71
2022/04/21 00:53:49;;;;;;;8.77;4.63;;;5.00;85.10;;;;;;5035440;28;20033;-71
2022/04/21 00:56:15;;;;;;;6.40;4.70;;;4.90;85.20;;;;;;5027673;28;20041;-71
2022/04/21 00:58:41;;;;;;;6.90;4.50;;;4.80;85.30;;;;;;5037138;28;20029;-70
2022/04/21 01:02:46;;;;;;;8.18;4.47;;;4.80;85.40;;;;;;5039593;28;20383;-71
2022/04/21 01:03:54;;;;;;;9.48;4.80;;;4.80;85.80;;;;;;5028142;28;20056;-71
2022/04/21 01:06:19;;;;;;;7.45;4.88;;;4.70;85.80;;;;;;5020291;28;20026;-71
2022/04/21 01:08:46;;;;;;;10.85;4.85;;;4.60;85.60;;;;;;5029476;28;20511;-71
2022/04/21 01:11:13;;;;;;;9.18;5.15;;;4.60;85.90;;;;;;5028069;28;20029;-71
2022/04/21 01:13:38;;;;;;;8.65;4.88;;;4.60;85.90;;;;;;5029421;28;20108;-71
2022/04/21 01:16:05;;;;;;;11.77;4.75;;;4.60;86.10;;;;;;5026071;28;20112;-71
2022/04/21 01:18:31;;;;;;;9.60;5.82;;;4.60;86.30;;;;;;5031243;28;20388;-71
2022/04/21 01:20:56;;;;;;;8.23;5.20;;;4.60;86.60;;;;;;5028377;28;20043;-71
2022/04/21 01:23:22;;;;;;;10.57;4.95;;;4.50;86.70;;;;;;5032095;28;20044;-71
2022/04/21 01:25:49;;;;;;;10.13;5.32;;;4.50;86.90;;;;;;5033502;28;20021;-71
2022/04/21 01:28:15;;;;;;;11.23;5.95;;;4.50;86.90;;;;;;5028574;28;20022;-71
2022/04/21 01:30:41;;;;;;;9.88;4.70;;;4.40;87.10;;;;;;5038068;28;20024;-71
2022/04/21 01:33:07;;;;;;;9.75;5.85;;;4.40;87.20;;;;;;5035341;28;20048;-71
2022/04/21 01:35:33;;;;;;;11.50;5.90;;;4.40;87.20;;;;;;5035128;28;20030;-71
2022/04/21 01:43:28;;;;;;;10.50;6.18;;;4.20;87.40;;;;;;5027181;28;20040;-71
2022/04/21 01:45:54;;;;;;;8.90;5.93;;;4.20;87.60;;;;;;5017520;28;20026;-71
2022/04/21 01:48:19;;;;;;;13.25;5.90;;;4.20;87.80;;;;;;5029504;28;20385;-71
2022/04/21 01:50:45;;;;;;;11.65;5.90;;;4.20;87.80;;;;;;5041718;28;20021;-70
2022/04/21 01:53:11;;;;;;;13.73;7.28;;;4.20;88.00;;;;;;5032522;28;20372;-71
2022/04/21 01:55:37;;;;;;;10.73;5.90;;;4.10;87.90;;;;;;5036246;28;20375;-71
2022/04/21 01:58:02;;;;;;;10.20;6.80;;;4.10;88.10;;;;;;5033106;28;20017;-71
2022/04/21 02:00:28;;;;;;;15.93;6.65;;;4.10;88.10;;;;;;5030365;28;20037;-71
2022/04/21 02:02:54;;;;;;;13.55;7.43;;;4.10;88.20;;;;;;5027892;28;20496;-71
2022/04/21 02:05:19;;;;;;;12.38;7.72;;;4.10;88.50;;;;;;5034151;28;20456;-71
2022/04/21 02:07:46;;;;;;;11.57;6.85;;;4.10;88.50;;;;;;5024855;28;20483;-71
2022/04/21 02:10:13;;;;;;;14.77;7.28;;;4.10;88.60;;;;;;5029972;28;20461;-71
2022/04/21 02:12:40;;;;;;;9.95;6.93;;;4.10;88.60;;;;;;5029369;28;20048;-71
2022/04/21 02:15:06;;;;;;;11.27;6.47;;;4.00;88.50;;;;;;5036803;28;20033;-71
2022/04/21 02:17:33;;;;;;;11.60;7.10;;;3.90;88.60;;;;;;5036182;28;20029;-71
2022/04/21 02:19:59;;;;;;;13.82;7.78;;;3.90;89.00;;;;;;5046778;28;20022;-71
2022/04/21 02:22:25;;;;;;;14.25;7.55;;;3.90;89.00;;;;;;5029510;28;20072;-71
2022/04/21 02:24:50;;;;;;;13.40;7.50;;;3.90;89.10;;;;;;5037127;28;20022;-71
2022/04/21 02:27:16;;;;;;;13.57;7.78;;;3.90;89.30;;;;;;5037460;28;20037;-71
2022/04/21 02:29:41;;;;;;;12.77;7.40;;;3.90;89.30;;;;;;5046215;28;20037;-71
2022/04/21 02:32:07;;;;;;;15.20;8.10;;;3.90;89.30;;;;;;5036136;28;20116;-71
2022/04/21 02:34:33;;;;;;;15.77;8.13;;;3.80;89.50;;;;;;5035659;28;20044;-71
2022/04/21 02:36:58;;;;;;;15.80;8.45;;;3.80;89.60;;;;;;5028585;28;20034;-71
2022/04/21 02:39:25;;;;;;;15.50;8.70;;;3.80;89.50;;;;;;5023006;28;20044;-71
2022/04/21 02:41:51;;;;;;;15.43;7.60;;;3.80;89.60;;;;;;5029632;28;20021;-71
2022/04/21 02:44:17;;;;;;;13.27;8.18;;;3.80;89.80;;;;;;5034940;28;20061;-71
2022/04/21 02:46:42;;;;;;;14.35;8.00;;;3.80;89.80;;;;;;5023243;28;20111;-71
2022/04/21 02:49:09;;;;;;;15.48;9.07;;;3.80;89.90;;;;;;5029614;28;20541;-71
2022/04/21 02:51:35;;;;;;;16.05;8.88;;;3.80;90.00;;;;;;5031935;28;20112;-71
2022/04/21 02:59:30;;;;;;;13.98;8.30;;;3.70;90.10;;;;;;5041343;28;20048;-71
2022/04/21 03:01:55;;;;;;;13.93;8.13;;;3.60;90.00;;;;;;5032300;28;20079;-71
2022/04/21 03:04:21;;;;;;;12.20;7.57;;;3.50;90.00;;;;;;5029685;28;20029;-71
2022/04/21 03:06:47;;;;;;;14.65;8.73;;;3.60;90.20;;;;;;5034490;28;20033;-71
2022/04/21 03:09:13;;;;;;;17.95;8.50;;;3.50;90.30;;;;;;5032296;28;20025;-71
2022/04/21 03:11:38;;;;;;;13.18;8.30;;;3.50;90.30;;;;;;5031425;28;20060;-71
2022/04/21 03:14:04;;;;;;;14.23;8.80;;;3.50;90.40;;;;;;5027554;28;20076;-71
2022/04/21 03:16:29;;;;;;;15.45;8.68;;;3.50;90.40;;;;;;5030585;28;20413;-71
2022/04/21 03:18:55;;;;;;;12.45;8.43;;;3.40;90.30;;;;;;5037565;28;20071;-71
2022/04/21 03:24:21;;;;;;;15.15;8.52;;;3.40;90.50;;;;;;5031507;28;20530;-71
2022/04/21 03:26:47;;;;;;;13.82;8.05;;;3.40;90.50;;;;;;5030736;28;20373;-71
2022/04/21 03:29:12;;;;;;;14.50;8.90;;;3.40;90.50;;;;;;5041048;28;20052;-71
2022/04/21 03:31:38;;;;;;;14.20;8.05;;;3.40;90.50;;;;;;5034084;28;20372;-71
2022/04/21 03:34:05;;;;;;;18.02;8.13;;;3.40;90.50;;;;;;5033549;28;20029;-71
2022/04/21 03:36:31;;;;;;;15.15;9.13;;;3.30;90.60;;;;;;5032720;28;20025;-71
2022/04/21 03:38:57;;;;;;;13.63;8.90;;;3.30;90.50;;;;;;5032736;28;20360;-71
2022/04/21 03:41:22;;;;;;;12.45;8.38;;;3.20;90.50;;;;;;5019303;28;20029;-71
2022/04/21 03:43:48;;;;;;;15.68;8.85;;;3.20;90.60;;;;;;5035623;28;20053;-71
2022/04/21 03:46:14;;;;;;;14.20;9.07;;;3.20;90.50;;;;;;5029390;28;20033;-71
2022/04/21 03:48:39;;;;;;;13.77;8.40;;;3.20;90.60;;;;;;5032283;28;20457;-71
2022/04/21 03:51:05;;;;;;;16.02;9.02;;;3.10;90.50;;;;;;5032366;28;20051;-71
2022/04/21 03:53:30;;;;;;;15.93;8.20;;;3.10;90.60;;;;;;5031040;28;20017;-71
2022/04/21 03:55:57;;;;;;;14.60;8.88;;;3.10;90.80;;;;;;5031428;28;20506;-71
2022/04/21 03:58:22;;;;;;;18.00;8.45;;;3.10;90.70;;;;;;5032389;28;20376;-71
2022/04/21 04:00:48;;;;;;;12.10;7.93;;;3.10;90.70;;;;;;5027881;28;20029;-71
2022/04/21 04:03:14;;;;;;;12.68;8.52;;;3.10;90.60;;;;;;5029750;28;20372;-71
2022/04/21 04:05:40;;;;;;;16.92;9.55;;;3.10;90.80;;;;;;5033106;28;20099;-71
2022/04/21 04:10:52;;;;;;;15.63;9.35;;;3.10;90.80;;;;;;5024334;28;20563;-71
2022/04/21 04:13:22;;;;;;;16.73;8.07;;;3.10;90.80;;;;;;5019789;28;20025;-70
2022/04/21 04:15:49;;;;;;;17.70;8.18;;;3.10;91.00;;;;;;5028709;28;20167;-71
2022/04/21 04:18:19;;;;;;;22.70;8.15;;;3.10;90.90;;;;;;5032515;28;20412;-68
2022/04/21 04:20:46;;;;;;;12.83;8.03;;;3.10;90.90;;;;;;5030654;28;20043;-68
2022/04/21 04:23:16;;;;;;;16.40;8.18;;;3.10;90.90;;;;;;5029777;28;20755;-68
2022/04/21 04:25:42;;;;;;;13.25;8.60;;;3.10;91.00;;;;;;5029288;28;20610;-68
2022/04/21 04:28:07;;;;;;;11.63;7.53;;;3.10;91.00;;;;;;5024984;28;20087;-68
2022/04/21 04:30:33;;;;;;;15.65;7.78;;;3.10;90.90;;;;;;5024347;28;20417;-69
2022/04/21 04:32:59;;;;;;;10.90;7.00;;;3.20;90.90;;;;;;5030489;28;20033;-69
2022/04/21 04:35:25;;;;;;;16.88;8.50;;;3.30;91.00;;;;;;5028353;28;20037;-69
2022/04/21 04:37:52;;;;;;;13.38;7.68;;;3.30;91.00;;;;;;5025391;28;20053;-69
2022/04/21 04:40:18;;;;;;;15.85;7.88;;;3.40;90.90;;;;;;5033895;28;20075;-68
2022/04/21 04:42:43;;;;;;;15.13;7.70;;;3.40;90.90;;;;;;5024385;28;20048;-69
2022/04/21 04:47:54;;;;;;;13.27;7.50;;;3.50;90.80;;;;;;5029606;28;20058;-69
2022/04/21 04:50:19;;;;;;;17.52;6.78;;;3.60;90.80;;;;;;5027496;28;20483;-68
2022/04/21 04:52:45;;;;;;;12.15;7.15;;;3.70;90.70;;;;;;5031439;28;20083;-68
2022/04/21 04:55:13;;;;;;;12.85;7.00;;;3.80;90.70;;;;;;5022174;28;20530;-68
2022/04/21 04:57:39;;;;;;;13.10;6.70;;;3.90;90.70;;;;;;5034745;28;20029;-69
2022/04/21 05:00:09;;;;;;;12.48;6.78;;;4.00;90.60;;;;;;5026418;28;20037;-69
2022/04/21 05:02:35;;;;;;;13.10;7.00;;;4.10;90.50;;;;;;5024065;28;20033;-69
2022/04/21 05:05:01;;;;;;;10.70;6.75;;;4.30;90.50;;;;;;5024153;28;20041;-69
2022/04/21 05:07:26;;;;;;;11.93;7.13;;;4.40;90.40;;;;;;5037656;28;20516;-69
2022/04/21 05:09:52;;;;;;;13.30;6.13;;;4.50;90.20;;;;;;5030025;28;20040;-69
2022/04/21 05:12:18;;;;;;;11.10;6.38;;;4.60;90.20;;;;;;5040592;28;20033;-68
2022/04/21 05:14:44;;;;;;;8.43;5.32;;;5.00;89.90;;;;;;5027641;28;20080;-69
2022/04/21 05:17:09;;;;;;;10.63;5.88;;;5.20;88.90;;;;;;5033431;28;20034;-69
2022/04/21 05:19:35;;;;;;;8.45;5.75;;;5.40;88.10;;;;;;5021244;28;20034;-68
2022/04/21 05:22:04;;;;;;;11.73;5.85;;;5.60;87.60;;;;;;5021286;28;20032;-69
2022/04/21 05:24:33;;;;;;;9.27;5.13;;;5.60;87.10;;;;;;5027218;28;20429;-68
2022/04/21 05:26:59;;;;;;;7.97;5.15;;;5.80;87.00;;;;;;5028024;28;20029;-69
2022/04/21 05:32:11;;;;;;;7.45;4.47;;;6.10;86.20;;;;;;5034875;28;20088;-68
2022/04/21 05:34:37;;;;;;;10.93;4.53;;;6.10;85.70;;;;;;5036861;28;20174;-68
2022/04/21 05:37:03;;;;;;;9.52;4.35;;;6.20;85.50;;;;;;5023027;28;20168;-69
2022/04/21 05:39:29;;;;;;;11.32;4.32;;;6.30;85.20;;;;;;5034828;28;20022;-69
2022/04/21 05:41:59;;;;;;;5.50;3.63;;;6.50;84.70;;;;;;5024988;28;20033;-70
2022/04/21 05:44:25;;;;;;;9.43;4.35;;;6.70;84.10;;;;;;5026600;28;20069;-69
2022/04/21 05:46:51;;;;;;;6.88;4.20;;;6.90;83.00;;;;;;5021302;28;20119;-69
2022/04/21 05:49:18;;;;;;;8.48;3.92;;;7.00;82.50;;;;;;5034425;28;20088;-69
2022/04/21 05:51:46;;;;;;;9.02;4.35;;;7.20;81.70;;;;;;5028880;28;20538;-69
2022/04/21 05:54:15;;;;;;;7.18;3.78;;;7.40;81.40;;;;;;5032278;28;20033;-69
2022/04/21 05:56:44;;;;;;;14.30;3.75;;;7.50;80.90;;;;;;5033453;28;20526;-69
2022/04/21 05:59:10;;;;;;;8.00;3.58;;;7.60;80.60;;;;;;5031715;28;20041;-69
2022/04/21 06:01:36;;;;;;;8.30;3.58;;;7.80;80.00;;;;;;5034758;28;20396;-70
2022/04/21 06:04:02;;;;;;;8.63;3.92;;;7.90;78.90;;;;;;5032678;28;20491;-69
2022/04/21 06:06:27;;;;;;;6.53;3.40;;;8.10;78.90;;;;;;5034138;28;20446;-70
2022/04/21 06:08:53;;;;;;;7.18;3.67;;;8.20;78.30;;;;;;5032938;28;20052;-69
2022/04/21 06:11:18;;;;;;;7.60;3.75;;;8.50;78.30;;;;;;5030569;28;20374;-69
2022/04/21 06:13:44;;;;;;;8.13;3.63;;;8.60;77.50;;;;;;5028935;28;20163;-70
2022/04/21 06:16:10;;;;;;;5.97;3.20;;;8.70;76.50;;;;;;5032180;28;20044;-70
2022/04/21 06:18:38;;;;;;;8.80;3.20;;;8.70;74.80;;;;;;5032988;28;20028;-69
2022/04/21 06:21:06;;;;;;;6.13;3.08;;;8.90;75.10;;;;;;5032662;28;20116;-70
2022/04/21 06:23:32;;;;;;;6.97;3.03;;;9.00;75.00;;;;;;5031431;28;20034;-70
2022/04/21 06:26:00;;;;;;;6.13;3.10;;;9.20;75.00;;;;;;5033726;28;20465;-69
2022/04/21 06:28:27;;;;;;;10.80;2.83;;;9.20;74.10;;;;;;5033415;28;20052;-69
2022/04/21 06:30:52;;;;;;;9.15;2.95;;;9.20;73.50;;;;;;5033733;28;20108;-70
2022/04/21 06:33:18;;;;;;;6.22;2.95;;;9.10;73.50;;;;;;5033548;28;20544;-69
2022/04/21 06:35:44;;;;;;;6.00;2.78;;;9.20;73.50;;;;;;5029537;28;20099;-70
2022/04/21 06:38:10;;;;;;;7.45;3.75;;;9.30;73.60;;;;;;5030880;28;20029;-69
2022/04/21 06:40:36;;;;;;;7.45;2.85;;;9.30;73.30;;;;;;5041387;28;20029;-70
2022/04/21 06:48:01;;;;;;;4.65;2.95;;;9.60;73.00;;;;;;5032412;28;20040;-70
2022/04/21 06:48:32;;;;;;;5.45;2.72;;;9.90;71.30;;;;;;5023778;28;20036;-70
2022/04/21 06:50:57;;;;;;;4.78;2.35;;;10.20;70.40;;;;;;5041098;28;20033;-70
2022/04/21 06:53:23;;;;;;;4.32;2.42;;;10.60;69.40;;;;;;5026221;28;20092;-70
2022/04/21 06:55:48;;;;;;;4.43;2.42;;;10.90;67.20;;;;;;5032510;28;20079;-70
2022/04/21 06:58:14;;;;;;;10.75;2.35;;;11.00;67.10;;;;;;5031326;28;20037;-71
2022/04/21 07:00:39;;;;;;;4.40;2.50;;;11.00;67.10;;;;;;5031084;28;20041;-69
2022/04/21 07:03:08;;;;;;;6.45;2.20;;;10.60;66.40;;;;;;5030986;28;20401;-70
2022/04/21 07:05:33;;;;;;;4.55;2.15;;;10.40;66.60;;;;;;5018768;28;20459;-69
2022/04/21 07:07:59;;;;;;;4.85;2.45;;;10.20;67.80;;;;;;5032700;28;20044;-70
2022/04/21 07:10:24;;;;;;;4.63;2.55;;;10.10;68.40;;;;;;5036380;28;20030;-70
2022/04/21 07:12:50;;;;;;;5.25;2.95;;;10.10;69.10;;;;;;5032977;28;20052;-70
2022/04/21 07:15:16;;;;;;;6.65;2.72;;;10.10;68.70;;;;;;5031071;28;20040;-70
2022/04/21 07:17:41;;;;;;;7.20;3.00;;;10.00;69.00;;;;;;5032810;28;20041;-70
2022/04/21 07:20:10;;;;;;;4.72;3.03;;;10.10;67.90;;;;;;5030918;28;20029;-70
2022/04/21 07:22:36;;;;;;;4.70;2.67;;;10.30;68.70;;;;;;5027631;28;20403;-69
2022/04/21 07:25:05;;;;;;;5.22;2.78;;;10.60;68.20;;;;;;5032006;28;20052;-70
2022/04/21 07:27:30;;;;;;;5.93;3.03;;;10.70;67.60;;;;;;5025232;28;20028;-70
2022/04/21 07:29:56;;;;;;;7.90;2.97;;;10.70;67.10;;;;;;5031832;28;20037;-70
2022/04/21 07:32:22;;;;;;;5.72;2.53;;;11.00;68.00;;;;;;5040891;28;20029;-70
2022/04/21 07:34:47;;;;;;;7.18;2.75;;;10.90;67.30;;;;;;5029856;28;20381;-70
2022/04/21 07:37:13;;;;;;;6.28;2.80;;;10.80;66.60;;;;;;5025562;28;20100;-70
2022/04/21 07:39:42;;;;;;;4.40;2.67;;;10.80;67.10;;;;;;5031944;28;20457;-70
2022/04/21 07:42:09;;;;;;;7.97;2.80;;;10.80;66.20;;;;;;5027236;28;20040;-69
2022/04/21 07:44:35;;;;;;;4.93;2.50;;;10.90;67.20;;;;;;5030369;28;93190;-70
2022/04/21 07:47:01;;;;;;;4.45;2.65;;;10.80;66.00;;;;;;5029283;28;20393;-70
2022/04/21 07:49:45;;;;;;;5.32;2.58;;;11.10;66.60;;;;;;5027166;28;20045;-70
2022/04/21 07:55:15;;;;;;;5.78;2.70;;;11.40;64.80;;;;;;5023770;28;20088;-69
2022/04/21 07:57:42;;;;;;;5.22;2.83;;;11.40;64.60;;;;;;5036674;28;20029;-70
2022/04/21 08:00:08;;;;;;;6.63;2.85;;;11.70;64.20;;;;;;5028855;28;20474;-69
2022/04/21 08:02:34;;;;;;;4.15;2.50;;;11.80;64.40;;;;;;5020610;28;20396;-70
2022/04/21 08:04:59;;;;;;;4.88;2.20;;;12.00;63.20;;;;;;5032179;28;20028;-70
2022/04/21 08:07:25;;;;;;;4.50;2.28;;;12.10;62.80;;;;;;5025123;28;20029;-70
2022/04/21 08:09:51;;;;;;;6.82;2.85;;;12.60;64.00;;;;;;5028097;28;20041;-70
2022/04/21 08:12:16;;;;;;;5.45;2.60;;;12.90;63.60;;;;;;5032889;28;20052;-70
2022/04/21 08:14:42;;;;;;;7.50;2.45;;;13.30;62.00;;;;;;5025609;28;20550;-70
2022/04/21 08:17:08;;;;;;;4.90;2.08;;;13.80;60.50;;;;;;5031760;28;20036;-70
2022/04/21 08:19:34;;;;;;;5.20;1.90;;;13.40;56.70;;;;;;5024397;28;20036;-70
2022/04/21 08:21:59;;;;;;;3.72;1.85;;;13.50;57.00;;;;;;5030902;28;20033;-70
2022/04/21 08:32:41;;;;;;;4.38;1.60;;;13.50;54.40;;;;;;5031490;28;20464;-70
2022/04/21 08:35:07;;;;;;;4.97;1.40;;;13.50;55.20;;;;;;5024676;28;20062;-70
2022/04/21 08:37:36;;;;;;;5.25;1.77;;;13.70;53.60;;;;;;5028771;28;20037;-70
2022/04/21 08:40:02;;;;;;;2.50;1.40;;;13.90;55.00;;;;;;5026253;28;20036;-70
2022/04/21 08:42:31;;;;;;;3.10;1.45;;;14.30;54.10;;;;;;5029317;28;20366;-70
2022/04/21 08:44:58;;;;;;;3.75;1.75;;;14.30;51.00;;;;;;5019245;28;20061;-70
2022/04/21 08:47:27;;;;;;;2.50;1.10;;;14.50;52.80;;;;;;5025707;28;20069;-70
2022/04/21 08:49:57;;;;;;;3.50;1.52;;;14.60;53.20;;;;;;5024925;28;20079;-71
2022/04/21 08:52:24;;;;;;;3.47;1.25;;;14.70;52.70;;;;;;5038589;28;20034;-70
2022/04/21 08:54:49;;;;;;;1.85;1.23;;;14.80;51.80;;;;;;5030604;28;20108;-70
2022/04/21 08:57:15;;;;;;;4.03;1.83;;;15.00;51.80;;;;;;5031171;28;20121;-70
2022/04/21 08:59:40;;;;;;;2.55;1.40;;;15.30;52.10;;;;;;5034074;28;20036;-70
2022/04/21 09:02:06;;;;;;;3.17;1.70;;;15.10;51.40;;;;;;5027123;28;20034;-70
2022/04/21 09:04:31;;;;;;;6.82;2.10;;;15.10;51.00;;;;;;5030899;28;20033;-70
2022/04/21 09:07:13;;;;;;;2.97;1.67;;;15.30;50.00;;;;;;5029735;28;20083;-70
2022/04/21 09:09:39;;;;;;;3.15;1.60;;;15.50;50.50;;;;;;5026779;28;20052;-70
2022/04/21 09:12:05;;;;;;;3.67;1.60;;;15.50;49.10;;;;;;5029912;28;20029;-70
2022/04/21 09:14:30;;;;;;;2.72;1.40;;;15.80;50.40;;;;;;5040610;28;20048;-70
2022/04/21 09:17:04;;;;;;;2.63;1.40;;;16.00;48.40;;;;;;5029328;28;20392;-70
2022/04/21 09:19:29;;;;;;;4.68;1.48;;;15.90;50.20;;;;;;5021743;28;20133;-70
2022/04/21 09:21:56;;;;;;;2.50;1.35;;;15.80;48.60;;;;;;5030452;28;20530;-70
2022/04/21 09:24:27;;;;;;;2.65;1.20;;;15.80;49.40;;;;;;5031211;28;20033;-70
2022/04/21 09:26:55;;;;;;;3.20;1.45;;;16.00;48.30;;;;;;5028765;28;20069;-70
2022/04/21 09:29:30;;;;;;;2.80;1.48;;;16.40;48.90;;;;;;5030144;28;20068;-70
2022/04/21 09:32:04;;;;;;;3.92;1.25;;;16.60;48.10;;;;;;5052002;28;20061;-70
2022/04/21 09:34:30;;;;;;;3.10;1.23;;;16.80;47.80;;;;;;5027832;28;20046;-72
2022/04/21 09:36:57;;;;;;;4.07;1.60;;;17.20;47.60;;;;;;5024283;28;20037;-70
2022/04/21 09:39:23;;;;;;;4.97;1.38;;;17.60;46.70;;;;;;5025915;28;20048;-70
2022/04/21 09:41:55;;;;;;;3.65;1.65;;;17.90;45.40;;;;;;5029491;28;20032;-70
2022/04/21 09:47:17;;;;;;;3.85;1.30;;;17.60;44.10;;;;;;5022503;28;20028;-70
2022/04/21 09:49:43;;;;;;;3.70;1.35;;;18.20;45.10;;;;;;5021612;28;20901;-70
2022/04/21 09:52:09;;;;;;;3.83;1.33;;;18.00;43.90;;;;;;5028808;28;20152;-70
2022/04/21 09:54:34;;;;;;;2.70;1.67;;;18.00;44.10;;;;;;5020914;28;20052;-70
2022/04/21 09:57:00;;;;;;;2.78;1.42;;;17.80;42.20;;;;;;5020817;28;20033;-70
2022/04/21 09:59:26;;;;;;;4.15;1.50;;;18.20;45.30;;;;;;5027697;28;20017;-70
2022/04/21 10:01:52;;;;;;;7.10;1.42;;;18.50;42.90;;;;;;5034799;28;20079;-71
2022/04/21 10:04:18;;;;;;;3.35;1.20;;;18.20;43.60;;;;;;5029868;28;20022;-70
2022/04/21 10:06:44;;;;;;;2.25;1.30;;;18.00;44.10;;;;;;5035108;28;20029;-70
2022/04/21 10:09:12;;;;;;;4.45;1.45;;;17.90;43.60;;;;;;5030624;28;20507;-70
2022/04/21 10:11:38;;;;;;;3.53;1.30;;;18.10;43.90;;;;;;5030453;28;20027;-70
2022/04/21 10:14:07;;;;;;;3.50;1.40;;;18.40;41.80;;;;;;5030090;28;20045;-71
2022/04/21 10:16:33;;;;;;;4.63;1.50;;;18.80;42.70;;;;;;5029566;28;20052;-71
2022/04/21 10:19:00;;;;;;;2.30;1.20;;;18.70;42.20;;;;;;5025691;28;20073;-70
2022/04/21 10:21:32;;;;;;;4.70;1.33;;;18.50;41.70;;;;;;5028149;28;20104;-71
2022/04/21 10:23:58;;;;;;;4.30;1.23;;;18.70;42.00;;;;;;5030298;28;20065;-70
2022/04/21 10:26:50;;;;;;;3.55;1.40;;;19.00;41.80;;;;;;5028485;28;20427;-70
2022/04/21 10:29:17;;;;;;;2.92;1.20;;;19.00;43.30;;;;;;5025933;28;20056;-70
2022/04/21 10:31:49;;;;;;;3.78;1.38;;;19.10;40.20;;;;;;5028849;28;20025;-70
2022/04/21 10:34:28;;;;;;;3.75;1.25;;;19.20;41.00;;;;;;5027329;28;20036;-70
2022/04/21 10:37:14;;;;;;;2.55;1.15;;;19.10;39.50;;;;;;5029516;28;20124;-70
2022/04/21 10:40:04;;;;;;;4.85;1.50;;;19.60;39.50;;;;;;5027470;28;20104;-70
2022/04/21 10:42:50;;;;;;;3.92;1.50;;;19.90;39.40;;;;;;5033170;28;20104;-70
2022/04/21 10:45:22;;;;;;;3.95;1.20;;;20.00;39.00;;;;;;5024562;28;20060;-71
2022/04/21 10:48:09;;;;;;;10.63;1.63;;;20.10;39.90;;;;;;5025361;28;20029;-71
2022/04/21 10:50:38;;;;;;;4.05;1.40;;;19.30;38.40;;;;;;5032066;28;20025;-70
2022/04/21 10:58:32;;;;;;;4.20;1.48;;;19.30;40.40;;;;;;5026286;28;20040;-70
2022/04/21 11:01:11;;;;;;;4.00;1.27;;;19.80;40.90;;;;;;5023184;28;20037;-70
2022/04/21 11:03:37;;;;;;;2.75;1.08;;;19.90;39.90;;;;;;5032404;28;20037;-70
2022/04/21 11:06:05;;;;;;;2.85;1.10;;;20.00;40.50;;;;;;5030229;28;20435;-70
2022/04/21 11:08:31;;;;;;;5.88;1.30;;;19.60;39.50;;;;;;5030854;28;20030;-70
2022/04/21 11:10:56;;;;;;;3.90;1.27;;;19.50;38.70;;;;;;5022779;28;20480;-70
2022/04/21 11:13:49;;;;;;;7.90;1.70;;;19.00;38.90;;;;;;5032753;28;20128;-70
2022/04/21 11:16:47;;;;;;;6.05;1.55;;;18.80;41.50;;;;;;5023695;28;20038;-71
2022/04/21 11:19:35;;;;;;;6.40;1.73;;;18.70;41.50;;;;;;5030161;28;20041;-70
2022/04/21 11:22:03;;;;;;;4.78;1.70;;;18.60;41.60;;;;;;5029190;28;20029;-70
2022/04/21 11:24:55;;;;;;;5.18;1.30;;;18.40;43.20;;;;;;5032222;28;20489;-70
2022/04/21 11:27:21;;;;;;;3.50;1.83;;;18.50;42.00;;;;;;5033014;28;20473;-70
2022/04/21 11:29:46;;;;;;;3.30;1.30;;;19.00;42.50;;;;;;5038295;28;20022;-70
2022/04/21 11:32:16;;;;;;;3.90;1.52;;;18.90;41.80;;;;;;5030955;28;20037;-70
2022/04/21 11:34:42;;;;;;;3.78;1.33;;;18.80;41.70;;;;;;5028387;28;20033;-70
2022/04/21 11:37:08;;;;;;;3.33;1.70;;;18.50;41.20;;;;;;5032305;28;20030;-70
2022/04/21 11:39:38;;;;;;;4.75;1.67;;;19.00;41.70;;;;;;5030881;28;20037;-70
2022/04/21 11:42:04;;;;;;;2.22;1.17;;;18.70;39.60;;;;;;5026335;28;20029;-71
2022/04/21 11:44:29;;;;;;;7.88;1.42;;;19.00;41.60;;;;;;5029253;28;20543;-70
2022/04/21 11:46:55;;;;;;;6.13;1.40;;;18.80;40.50;;;;;;5032155;28;20447;-70
2022/04/21 11:49:20;;;;;;;3.97;1.80;;;18.60;40.80;;;;;;5032007;28;20042;-70
2022/04/21 11:51:52;;;;;;;2.47;1.40;;;18.60;43.00;;;;;;5031244;28;20393;-70
2022/04/21 11:54:17;;;;;;;4.00;1.63;;;18.50;41.60;;;;;;5029932;28;20030;-70
2022/04/21 11:56:50;;;;;;;5.93;1.65;;;18.20;42.50;;;;;;5032667;28;20048;-70
2022/04/21 11:59:15;;;;;;;5.97;1.60;;;18.30;42.20;;;;;;5025019;28;20029;-71
2022/04/21 12:07:18;;;;;;;3.47;1.50;;;17.80;44.70;;;;;;5030262;28;20060;-70
2022/04/21 12:09:50;;;;;;;4.05;1.10;;;17.70;44.60;;;;;;5026736;28;20447;-70
2022/04/21 12:12:20;;;;;;;3.60;1.33;;;17.60;44.80;;;;;;5023244;28;20056;-70
2022/04/21 12:14:46;;;;;;;4.05;1.25;;;17.50;44.50;;;;;;5025542;28;20488;-70
2022/04/21 12:17:12;;;;;;;4.63;1.77;;;17.70;44.20;;;;;;5021423;28;20045;-70
2022/04/21 12:19:44;;;;;;;3.13;1.50;;;17.50;43.30;;;;;;5027409;28;20037;-70
2022/04/21 12:22:18;;;;;;;3.33;1.20;;;17.90;43.20;;;;;;5019792;28;20116;-70
2022/04/21 12:24:47;;;;;;;3.35;1.30;;;18.10;43.40;;;;;;5022937;28;20380;-70
2022/04/21 12:27:17;;;;;;;1.85;1.10;;;18.00;43.90;;;;;;5024208;28;20134;-70
2022/04/21 12:30:05;;;;;;;2.03;1.20;;;18.10;42.80;;;;;;5025737;28;20065;-71
2022/04/21 12:32:33;;;;;;;4.28;1.30;;;18.20;42.60;;;;;;5022704;28;20040;-70
2022/04/21 12:35:01;;;;;;;4.45;1.15;;;17.90;42.80;;;;;;5021028;28;20095;-71
2022/04/21 12:37:32;;;;;;;7.53;1.45;;;17.80;43.00;;;;;;5025320;28;20033;-70
2022/04/21 12:40:00;;;;;;;3.53;1.20;;;17.80;42.50;;;;;;5022463;28;20392;-70
2022/04/21 12:42:27;;;;;;;4.35;1.20;;;18.00;41.80;;;;;;5029856;28;20045;-70
2022/04/21 12:44:53;;;;;;;6.25;1.38;;;18.10;43.10;;;;;;5030791;28;20044;-71
2022/04/21 12:47:21;;;;;;;4.45;1.38;;;18.00;42.00;;;;;;5031022;28;20291;-70
2022/04/21 12:49:58;;;;;;;5.45;1.50;;;18.10;41.50;;;;;;5039322;28;20083;-71
2022/04/21 12:52:32;;;;;;;4.15;1.40;;;18.70;41.90;;;;;;5025680;28;20034;-71
2022/04/21 12:54:58;;;;;;;4.38;1.70;;;19.00;41.50;;;;;;5029518;28;20120;-71
2022/04/21 12:57:24;;;;;;;3.05;1.27;;;19.20;41.50;;;;;;5030877;28;20180;-71
2022/04/21 12:59:51;;;;;;;4.20;1.45;;;19.10;40.80;;;;;;5027395;28;20111;-71
2022/04/21 13:02:19;;;;;;;4.07;1.48;;;19.00;41.30;;;;;;5029549;28;20029;-71
2022/04/21 13:04:46;;;;;;;6.18;1.33;;;19.20;40.70;;;;;;5031159;28;20030;-71
2022/04/21 13:07:12;;;;;;;5.20;1.50;;;19.20;42.80;;;;;;5024545;28;20496;-69
2022/04/21 13:09:37;;;;;;;7.63;1.88;;;19.40;39.90;;;;;;5030160;28;20041;-69
2022/04/21 13:12:03;;;;;;;6.57;1.50;;;19.10;42.30;;;;;;5030271;28;20033;-71
2022/04/21 13:14:29;;;;;;;3.45;1.65;;;19.00;41.50;;;;;;5027130;28;20030;-70
2022/04/21 13:16:55;;;;;;;4.93;1.40;;;19.20;42.20;;;;;;5026093;28;20052;-70
2022/04/21 13:19:21;;;;;;;5.72;1.33;;;19.10;41.90;;;;;;5031075;28;20365;-70
2022/04/21 13:21:52;;;;;;;5.90;1.77;;;18.90;40.70;;;;;;5027327;28;20436;-69
2022/04/21 13:24:22;;;;;;;7.00;1.50;;;18.30;41.90;;;;;;5030499;28;20037;-70
2022/04/21 13:26:48;;;;;;;5.15;1.70;;;18.30;41.10;;;;;;5040865;28;20083;-71
2022/04/21 13:29:14;;;;;;;3.78;1.42;;;18.40;43.70;;;;;;5029705;28;20060;-70
2022/04/21 13:34:23;;;;;;;3.47;1.40;;;18.50;42.30;;;;;;5025487;28;20095;-70
2022/04/21 13:36:49;;;;;;;4.00;1.80;;;18.10;42.70;;;;;;5030068;28;20032;-70
2022/04/21 13:39:15;;;;;;;5.60;1.60;;;18.40;43.70;;;;;;5035126;28;20512;-69
2022/04/21 13:41:41;;;;;;;5.32;1.90;;;18.40;44.00;;;;;;5027320;28;20263;-69
2022/04/21 13:44:08;;;;;;;6.28;2.05;;;18.30;44.20;;;;;;5030781;28;20045;-70
2022/04/21 13:46:37;;;;;;;3.95;1.90;;;18.40;44.00;;;;;;5025741;28;20041;-68